Time;durP1;ratioP1;P1;durP2;ratioP2;P2;SDS_P1;SDS_P2;PMS_P1;PMS_P2;Temp;Humidity;BMP_temperature;BMP_pressure;BME280_temperature;BME280_humidity;BME280_pressure;Samples;Min_cycle;Max_cycle;Signal;HPM_P1;HPM_P2
2021/07/28 00:01:43;;;;;;;;;21.00;15.67;;;;;;;;3567625;39;113798;-78
2021/07/28 00:04:09;;;;;;;;;16.67;16.67;;;;;;;;3570820;39;112016;-78
2021/07/28 00:06:36;;;;;;;;;17.33;16.00;;;;;;;;3568282;39;113187;-79
2021/07/28 00:09:03;;;;;;;;;14.67;12.00;;;;;;;;3571153;39;114352;-78
2021/07/28 00:11:29;;;;;;;;;11.67;11.00;;;;;;;;3569979;39;114570;-78
2021/07/28 00:13:59;;;;;;;;;16.00;15.00;;;;;;;;3568775;39;113938;-80
2021/07/28 00:16:25;;;;;;;;;11.33;11.33;;;;;;;;3571861;39;114168;-79
2021/07/28 00:19:02;;;;;;;;;15.33;14.67;;;;;;;;3570465;39;113504;-78
2021/07/28 00:24:13;;;;;;;;;13.33;11.67;;;;;;;;3570834;39;111593;-79
2021/07/28 00:26:39;;;;;;;;;16.67;15.33;;;;;;;;3568745;39;113225;-79
2021/07/28 00:29:07;;;;;;;;;16.67;15.67;;;;;;;;3568145;39;113988;-77
2021/07/28 00:31:34;;;;;;;;;17.00;15.67;;;;;;;;3573099;39;111917;-79
2021/07/28 00:34:01;;;;;;;;;17.00;14.33;;;;;;;;3568261;39;114447;-78
2021/07/28 00:36:27;;;;;;;;;15.67;14.67;;;;;;;;3569779;39;111860;-78
2021/07/28 00:38:54;;;;;;;;;15.33;14.00;;;;;;;;3569503;39;113516;-77
2021/07/28 00:41:20;;;;;;;;;13.33;12.00;;;;;;;;3568792;39;114094;-79
2021/07/28 00:43:47;;;;;;;;;17.33;16.00;;;;;;;;3569772;39;112047;-78
2021/07/28 00:46:15;;;;;;;;;17.33;16.00;;;;;;;;3569006;39;112979;-78
2021/07/28 00:48:41;;;;;;;;;15.33;14.00;;;;;;;;3569614;39;113915;-78
2021/07/28 00:51:10;;;;;;;;;22.33;19.33;;;;;;;;3568608;39;111809;-78
2021/07/28 00:53:37;;;;;;;;;17.67;15.67;;;;;;;;3570924;39;113649;-78
2021/07/28 00:56:04;;;;;;;;;17.00;14.00;;;;;;;;3570076;39;111959;-77
2021/07/28 00:58:30;;;;;;;;;17.33;15.00;;;;;;;;3569195;39;113067;-78
2021/07/28 01:00:57;;;;;;;;;18.67;17.33;;;;;;;;3569565;39;113815;-77
2021/07/28 01:03:25;;;;;;;;;17.33;15.67;;;;;;;;3570784;39;111843;-77
2021/07/28 01:05:52;;;;;;;;;18.33;17.00;;;;;;;;3572633;39;113300;-78
2021/07/28 01:08:18;;;;;;;;;17.33;16.00;;;;;;;;3572511;39;114652;-77
2021/07/28 01:10:45;;;;;;;;;16.33;13.67;;;;;;;;3570445;39;111763;-78
2021/07/28 01:13:12;;;;;;;;;15.67;13.00;;;;;;;;3570358;39;113136;-77
2021/07/28 01:15:42;;;;;;;;;15.00;14.00;;;;;;;;3572512;39;113660;-77
2021/07/28 01:18:10;;;;;;;;;16.33;14.67;;;;;;;;3570586;39;113286;-77
2021/07/28 01:20:40;;;;;;;;;17.67;15.00;;;;;;;;3571816;39;114192;-78
2021/07/28 01:23:08;;;;;;;;;18.33;14.67;;;;;;;;3572314;39;112268;-78
2021/07/28 01:25:37;;;;;;;;;14.67;14.67;;;;;;;;3568354;39;112197;-78
2021/07/28 01:28:03;;;;;;;;;14.00;14.00;;;;;;;;3569435;39;114416;-78
2021/07/28 01:30:30;;;;;;;;;17.00;14.67;;;;;;;;3568633;39;112033;-77
2021/07/28 01:32:57;;;;;;;;;14.33;13.00;;;;;;;;3569354;39;113228;-78
2021/07/28 01:35:25;;;;;;;;;15.33;13.33;;;;;;;;3568703;39;113900;-78
2021/07/28 01:37:51;;;;;;;;;14.33;14.00;;;;;;;;3572814;39;111941;-78
2021/07/28 01:40:18;;;;;;;;;15.00;15.00;;;;;;;;3568031;39;114044;-78
2021/07/28 01:42:46;;;;;;;;;13.67;12.00;;;;;;;;3569707;39;111713;-79
2021/07/28 01:45:14;;;;;;;;;16.33;14.33;;;;;;;;3568366;39;113262;-78
2021/07/28 01:47:40;;;;;;;;;16.00;16.00;;;;;;;;3569503;39;113798;-79
2021/07/28 01:50:08;;;;;;;;;15.33;14.00;;;;;;;;3568165;39;111799;-79
2021/07/28 01:52:35;;;;;;;;;13.00;13.00;;;;;;;;3569721;39;113466;-80
2021/07/28 01:55:01;;;;;;;;;14.00;12.33;;;;;;;;3567790;39;113564;-78
2021/07/28 01:57:28;;;;;;;;;16.00;14.33;;;;;;;;3572855;39;112472;-79
2021/07/28 02:00:00;;;;;;;;;10.00;10.00;;;;;;;;3568359;39;114256;-78
2021/07/28 02:02:28;;;;;;;;;14.33;13.00;;;;;;;;3568592;39;111759;-78
2021/07/28 02:04:56;;;;;;;;;12.67;12.67;;;;;;;;3568875;39;113136;-78
2021/07/28 02:07:23;;;;;;;;;12.00;11.33;;;;;;;;3568058;39;114203;-78
2021/07/28 02:09:49;;;;;;;;;16.00;13.33;;;;;;;;3568431;39;112431;-78
2021/07/28 02:12:16;;;;;;;;;12.00;11.67;;;;;;;;3569205;39;113461;-77
2021/07/28 02:14:43;;;;;;;;;13.00;11.67;;;;;;;;3567323;39;113984;-77
2021/07/28 02:17:10;;;;;;;;;12.67;12.67;;;;;;;;3569665;39;111868;-78
2021/07/28 02:19:37;;;;;;;;;13.00;12.67;;;;;;;;3570044;39;113821;-78
2021/07/28 02:22:04;;;;;;;;;13.00;11.33;;;;;;;;3569250;39;111933;-79
2021/07/28 02:24:30;;;;;;;;;14.00;12.67;;;;;;;;3571521;39;113302;-79
2021/07/28 02:26:57;;;;;;;;;12.00;11.33;;;;;;;;3570200;39;114257;-79
2021/07/28 02:29:23;;;;;;;;;14.00;13.00;;;;;;;;3573014;39;112189;-75
2021/07/28 02:31:50;;;;;;;;;17.33;15.33;;;;;;;;3570974;39;113312;-76
2021/07/28 02:34:18;;;;;;;;;15.00;14.50;;;;;;;;3570270;39;114253;-75
2021/07/28 02:36:44;;;;;;;;;13.00;12.75;;;;;;;;3570790;39;111971;-76
2021/07/28 02:39:11;;;;;;;;;14.00;13.25;;;;;;;;3571276;39;113662;-76
2021/07/28 02:41:38;;;;;;;;;14.25;12.25;;;;;;;;3575324;39;113924;-76
2021/07/28 02:44:04;;;;;;;;;14.00;13.25;;;;;;;;3570757;39;113572;-76
2021/07/28 02:46:31;;;;;;;;;15.00;14.00;;;;;;;;3572544;39;113969;-77
2021/07/28 02:48:58;;;;;;;;;14.75;14.00;;;;;;;;3571608;39;112488;-74
2021/07/28 02:51:26;;;;;;;;;13.50;12.50;;;;;;;;3569992;39;113363;-76
2021/07/28 02:53:52;;;;;;;;;14.25;13.25;;;;;;;;3571384;39;114038;-75
2021/07/28 02:56:19;;;;;;;;;15.25;14.00;;;;;;;;3571606;39;112021;-75
2021/07/28 02:58:45;;;;;;;;;14.25;14.00;;;;;;;;3570254;39;113060;-75
2021/07/28 03:01:12;;;;;;;;;15.50;13.25;;;;;;;;3568594;39;113688;-77
2021/07/28 03:03:38;;;;;;;;;17.25;16.75;;;;;;;;3573318;39;111906;-76
2021/07/28 03:06:05;;;;;;;;;18.00;14.25;;;;;;;;3568703;39;115490;-76
2021/07/28 03:08:33;;;;;;;;;17.50;14.75;;;;;;;;3570423;39;111926;-76
2021/07/28 03:10:59;;;;;;;;;13.00;13.00;;;;;;;;3569340;39;113839;-76
2021/07/28 03:13:26;;;;;;;;;12.67;11.00;;;;;;;;3569639;39;113968;-76
2021/07/28 03:15:52;;;;;;;;;13.00;12.00;;;;;;;;3571652;39;111901;-76
2021/07/28 03:18:19;;;;;;;;;17.33;16.00;;;;;;;;3569614;39;113450;-76
2021/07/28 03:20:46;;;;;;;;;15.00;13.00;;;;;;;;3571875;39;114174;-76
2021/07/28 03:23:12;;;;;;;;;15.00;14.00;;;;;;;;3571179;39;111866;-76
2021/07/28 03:25:40;;;;;;;;;14.00;13.00;;;;;;;;3572875;39;113354;-76
2021/07/28 03:28:07;;;;;;;;;13.33;11.00;;;;;;;;3572997;39;112029;-75
2021/07/28 03:30:33;;;;;;;;;13.00;13.00;;;;;;;;3572713;39;113738;-75
2021/07/28 03:33:00;;;;;;;;;14.00;13.67;;;;;;;;3570857;39;113880;-75
2021/07/28 03:35:26;;;;;;;;;12.25;12.25;;;;;;;;3572038;39;112288;-75
2021/07/28 03:37:53;;;;;;;;;11.75;10.50;;;;;;;;3572576;39;113223;-74
2021/07/28 03:40:20;;;;;;;;;13.25;13.25;;;;;;;;3567981;39;114664;-75
2021/07/28 03:42:48;;;;;;;;;14.00;13.00;;;;;;;;3574168;39;112290;-75
2021/07/28 03:45:14;;;;;;;;;13.00;13.00;;;;;;;;3568931;39;113207;-76
2021/07/28 03:47:41;;;;;;;;;14.00;14.00;;;;;;;;3574408;39;113932;-76
2021/07/28 03:50:08;;;;;;;;;16.25;14.00;;;;;;;;3571619;39;113435;-77
2021/07/28 03:52:35;;;;;;;;;13.00;12.00;;;;;;;;3569811;39;116514;-76
2021/07/28 03:55:01;;;;;;;;;13.00;11.67;;;;;;;;3571468;39;111959;-74
2021/07/28 03:57:28;;;;;;;;;14.00;14.00;;;;;;;;3573552;39;113160;-76
2021/07/28 03:59:56;;;;;;;;;13.33;13.00;;;;;;;;3569236;39;114422;-75
2021/07/28 04:02:22;;;;;;;;;14.00;13.00;;;;;;;;3569717;39;111995;-78
2021/07/28 04:04:49;;;;;;;;;18.00;14.50;;;;;;;;3571893;39;113694;-76
2021/07/28 04:07:15;;;;;;;;;15.00;15.00;;;;;;;;3571351;39;113700;-77
2021/07/28 04:09:42;;;;;;;;;13.00;13.00;;;;;;;;3570342;39;114367;-75
2021/07/28 04:12:09;;;;;;;;;15.50;13.50;;;;;;;;3570348;39;114247;-76
2021/07/28 04:14:35;;;;;;;;;13.75;13.50;;;;;;;;3568679;39;111821;-76
2021/07/28 04:17:03;;;;;;;;;14.00;11.00;;;;;;;;3572204;39;113256;-76
2021/07/28 04:19:30;;;;;;;;;13.00;12.25;;;;;;;;3568518;39;113836;-76
2021/07/28 04:21:56;;;;;;;;;16.00;14.75;;;;;;;;3571806;39;112306;-76
2021/07/28 04:24:23;;;;;;;;;14.50;14.00;;;;;;;;3569532;39;113223;-76
2021/07/28 04:26:50;;;;;;;;;14.00;13.00;;;;;;;;3568573;39;113920;-77
2021/07/28 04:29:16;;;;;;;;;16.25;15.00;;;;;;;;3572608;39;111824;-76
2021/07/28 04:31:43;;;;;;;;;14.25;14.25;;;;;;;;3568338;39;114167;-77
2021/07/28 04:34:11;;;;;;;;;18.25;14.75;;;;;;;;3570262;39;111852;-77
2021/07/28 04:36:37;;;;;;;;;13.50;13.25;;;;;;;;3568623;39;113328;-76
2021/07/28 04:39:04;;;;;;;;;15.75;13.00;;;;;;;;3570057;39;114087;-77
2021/07/28 04:41:30;;;;;;;;;16.75;15.00;;;;;;;;3570649;39;112693;-76
2021/07/28 04:43:57;;;;;;;;;15.50;14.50;;;;;;;;3569829;39;113334;-77
2021/07/28 04:46:24;;;;;;;;;15.25;14.75;;;;;;;;3570899;39;114725;-76
2021/07/28 04:48:50;;;;;;;;;15.75;14.75;;;;;;;;3568817;39;111935;-76
2021/07/28 04:51:18;;;;;;;;;15.25;14.00;;;;;;;;3571953;39;114072;-76
2021/07/28 04:53:45;;;;;;;;;11.25;10.25;;;;;;;;3568695;39;112022;-77
2021/07/28 04:56:12;;;;;;;;;14.00;14.00;;;;;;;;3570142;39;113306;-77
2021/07/28 04:58:38;;;;;;;;;18.00;16.75;;;;;;;;3570128;39;113729;-73
2021/07/28 05:01:05;;;;;;;;;18.00;16.00;;;;;;;;3568529;39;112113;-75
2021/07/28 05:03:31;;;;;;;;;19.75;17.00;;;;;;;;3570030;39;113561;-76
2021/07/28 05:05:58;;;;;;;;;14.50;14.00;;;;;;;;3568254;39;114008;-76
2021/07/28 05:08:26;;;;;;;;;14.75;13.75;;;;;;;;3569463;39;111772;-76
2021/07/28 05:10:52;;;;;;;;;17.25;16.00;;;;;;;;3569122;39;113817;-78
2021/07/28 05:13:19;;;;;;;;;14.00;14.00;;;;;;;;3571383;39;114399;-76
2021/07/28 05:15:45;;;;;;;;;14.50;14.00;;;;;;;;3569562;39;113713;-76
2021/07/28 05:18:15;;;;;;;;;16.00;16.00;;;;;;;;3568128;39;114328;-77
2021/07/28 05:20:42;;;;;;;;;14.00;13.00;;;;;;;;3569874;39;112415;-77
2021/07/28 05:23:08;;;;;;;;;18.00;15.25;;;;;;;;3568371;39;113204;-77
2021/07/28 05:25:36;;;;;;;;;14.50;13.75;;;;;;;;3569771;39;113914;-76
2021/07/28 05:28:03;;;;;;;;;17.25;14.50;;;;;;;;3504407;39;112386;-76
2021/07/28 05:30:29;;;;;;;;;14.25;12.50;;;;;;;;3543241;39;113146;-77
2021/07/28 05:32:56;;;;;;;;;15.50;14.75;;;;;;;;3543233;39;114051;-77
2021/07/28 05:35:22;;;;;;;;;16.75;15.25;;;;;;;;3546351;39;112142;-76
2021/07/28 05:37:49;;;;;;;;;18.00;15.00;;;;;;;;3543207;39;114189;-76
2021/07/28 05:40:16;;;;;;;;;15.25;15.25;;;;;;;;3543714;39;111889;-77
2021/07/28 05:42:43;;;;;;;;;16.75;15.25;;;;;;;;3543323;39;113152;-76
2021/07/28 05:45:10;;;;;;;;;13.75;13.00;;;;;;;;3542978;39;113902;-77
2021/07/28 05:47:37;;;;;;;;;17.25;16.25;;;;;;;;3543585;39;111857;-75
2021/07/28 05:50:04;;;;;;;;;13.00;10.25;;;;;;;;3541531;39;113592;-76
2021/07/28 05:52:30;;;;;;;;;14.50;14.25;;;;;;;;3542847;39;114221;-77
2021/07/28 05:54:57;;;;;;;;;15.00;14.25;;;;;;;;3543384;39;112523;-76
2021/07/28 05:57:23;;;;;;;;;13.50;11.25;;;;;;;;3545732;39;113461;-76
2021/07/28 05:59:51;;;;;;;;;17.00;14.00;;;;;;;;3543751;39;112076;-77
2021/07/28 06:02:18;;;;;;;;;13.50;12.00;;;;;;;;3544431;39;113642;-76
2021/07/28 06:04:44;;;;;;;;;17.50;16.50;;;;;;;;3542891;39;113856;-76
2021/07/28 06:07:12;;;;;;;;;20.00;18.00;;;;;;;;3544321;39;112436;-74
2021/07/28 06:09:40;;;;;;;;;17.00;15.50;;;;;;;;3543667;39;112577;-74
2021/07/28 06:12:07;;;;;;;;;17.25;16.00;;;;;;;;3543346;39;114094;-75
2021/07/28 06:14:34;;;;;;;;;16.25;15.50;;;;;;;;3542273;39;111798;-72
2021/07/28 06:17:02;;;;;;;;;15.50;15.50;;;;;;;;3546256;39;113307;-78
2021/07/28 06:19:28;;;;;;;;;18.50;17.75;;;;;;;;3544963;39;112098;-78
2021/07/28 06:21:55;;;;;;;;;18.50;15.50;;;;;;;;3544739;39;113409;-78
2021/07/28 06:24:21;;;;;;;;;15.00;15.00;;;;;;;;3544866;39;114015;-80
2021/07/28 06:26:48;;;;;;;;;18.25;16.50;;;;;;;;3544813;39;111850;-76
2021/07/28 06:29:14;;;;;;;;;17.00;16.50;;;;;;;;3541516;39;112429;-76
2021/07/28 06:31:41;;;;;;;;;19.00;17.50;;;;;;;;3544533;39;113877;-79
2021/07/28 06:34:09;;;;;;;;;16.75;15.25;;;;;;;;3544967;39;111645;-77
2021/07/28 06:36:36;;;;;;;;;17.50;15.75;;;;;;;;3544998;39;113267;-80
2021/07/28 06:39:03;;;;;;;;;22.25;19.00;;;;;;;;3545224;39;114438;-78
2021/07/28 06:41:29;;;;;;;;;17.25;17.00;;;;;;;;3544965;39;113426;-76
2021/07/28 06:43:56;;;;;;;;;16.75;14.75;;;;;;;;3544486;39;113804;-78
2021/07/28 06:46:22;;;;;;;;;23.50;18.50;;;;;;;;3545235;39;111779;-77
2021/07/28 06:48:49;;;;;;;;;15.50;14.75;;;;;;;;3544432;39;113427;-78
2021/07/28 06:51:17;;;;;;;;;17.75;15.00;;;;;;;;3543227;39;114069;-79
2021/07/28 06:53:44;;;;;;;;;16.00;15.00;;;;;;;;3543231;39;113166;-77
2021/07/28 06:56:13;;;;;;;;;16.25;15.25;;;;;;;;3544408;39;113286;-78
2021/07/28 06:58:40;;;;;;;;;17.50;16.50;;;;;;;;3544098;39;113835;-78
2021/07/28 07:01:07;;;;;;;;;16.00;15.75;;;;;;;;3545386;39;112431;-78
2021/07/28 07:03:34;;;;;;;;;16.00;14.00;;;;;;;;3544333;39;114414;-79
2021/07/28 07:06:01;;;;;;;;;17.50;17.50;;;;;;;;3544684;39;112069;-79
2021/07/28 07:08:28;;;;;;;;;18.00;15.00;;;;;;;;3544664;39;113241;-79
2021/07/28 07:10:55;;;;;;;;;18.00;17.00;;;;;;;;3544069;39;114004;-78
2021/07/28 07:13:22;;;;;;;;;18.33;16.67;;;;;;;;3544553;39;111778;-79
2021/07/28 07:15:49;;;;;;;;;17.33;14.67;;;;;;;;3544904;39;113324;-80
2021/07/28 07:18:15;;;;;;;;;16.33;14.00;;;;;;;;3544212;39;113931;-83
2021/07/28 07:20:42;;;;;;;;;11.67;9.00;;;;;;;;3544758;39;112286;-81
2021/07/28 07:23:09;;;;;;;;;15.33;14.00;;;;;;;;3546916;39;114819;-79
2021/07/28 07:25:36;;;;;;;;;13.33;13.33;;;;;;;;3544688;39;111854;-78
2021/07/28 07:28:03;;;;;;;;;15.67;14.67;;;;;;;;3539217;39;115255;-79
2021/07/28 07:30:30;;;;;;;;;16.00;15.00;;;;;;;;3543821;39;113783;-77
2021/07/28 07:35:41;;;;;;;;;15.33;14.33;;;;;;;;3542826;39;111970;-79
2021/07/28 07:38:07;;;;;;;;;16.33;15.00;;;;;;;;3543884;39;113863;-80
2021/07/28 07:40:34;;;;;;;;;17.33;16.33;;;;;;;;3542940;39;111869;-79
2021/07/28 07:43:02;;;;;;;;;15.00;14.00;;;;;;;;3543759;39;113178;-80
2021/07/28 07:45:29;;;;;;;;;16.33;15.33;;;;;;;;3546695;39;113617;-79
2021/07/28 07:47:55;;;;;;;;;16.00;15.00;;;;;;;;3544156;39;113244;-80
2021/07/28 07:50:22;;;;;;;;;15.33;15.00;;;;;;;;3543755;39;114111;-80
2021/07/28 07:52:48;;;;;;;;;12.33;12.00;;;;;;;;3543042;39;111834;-82
2021/07/28 07:55:15;;;;;;;;;15.00;14.00;;;;;;;;3543819;39;113337;-82
2021/07/28 07:57:41;;;;;;;;;18.00;15.67;;;;;;;;3543816;39;114069;-80
2021/07/28 08:00:10;;;;;;;;;15.33;14.67;;;;;;;;3544224;39;111864;-82
2021/07/28 08:02:37;;;;;;;;;11.33;8.33;;;;;;;;3544048;39;113476;-84
2021/07/28 08:05:03;;;;;;;;;15.67;15.00;;;;;;;;3543652;39;114745;-83
2021/07/28 08:07:30;;;;;;;;;15.67;12.67;;;;;;;;3546904;39;112095;-76
2021/07/28 08:09:56;;;;;;;;;14.00;13.67;;;;;;;;3543470;39;113887;-83
2021/07/28 08:12:23;;;;;;;;;15.33;15.33;;;;;;;;3544223;39;112074;-79
2021/07/28 08:14:50;;;;;;;;;14.75;14.00;;;;;;;;3543930;39;113285;-82
2021/07/28 08:17:18;;;;;;;;;13.50;12.75;;;;;;;;3542409;39;114137;-82
2021/07/28 08:19:44;;;;;;;;;15.25;14.75;;;;;;;;3543594;39;112001;-83
2021/07/28 08:22:11;;;;;;;;;13.50;13.50;;;;;;;;3544427;39;113378;-87
2021/07/28 08:24:38;;;;;;;;;20.33;16.00;;;;;;;;3544247;39;114674;-78
2021/07/28 08:27:04;;;;;;;;;14.00;14.00;;;;;;;;3546929;39;111878;-78
2021/07/28 08:29:31;;;;;;;;;17.67;16.00;;;;;;;;3543920;39;114232;-81
2021/07/28 08:31:57;;;;;;;;;16.00;13.33;;;;;;;;3544140;39;111894;-85
2021/07/28 08:34:25;;;;;;;;;16.00;16.00;;;;;;;;3544287;39;113283;-80
2021/07/28 08:36:52;;;;;;;;;18.00;17.00;;;;;;;;3543562;39;113968;-78
2021/07/28 08:39:19;;;;;;;;;14.67;14.67;;;;;;;;3544082;39;111913;-78
2021/07/28 08:41:47;;;;;;;;;16.33;15.33;;;;;;;;3543995;39;113245;-77
2021/07/28 08:44:18;;;;;;;;;17.00;15.67;;;;;;;;3544506;39;113810;-78
2021/07/28 08:46:45;;;;;;;;;15.67;15.00;;;;;;;;3545047;39;112223;-79
2021/07/28 08:49:12;;;;;;;;;14.67;13.67;;;;;;;;3546778;39;113319;-81
2021/07/28 08:51:43;;;;;;;;;17.00;16.33;;;;;;;;3544162;39;112103;-79
2021/07/28 08:54:10;;;;;;;;;22.33;21.00;;;;;;;;3544412;39;113501;-81
2021/07/28 08:56:39;;;;;;;;;16.33;16.33;;;;;;;;3543786;39;113842;-78
2021/07/28 08:59:05;;;;;;;;;16.67;16.67;;;;;;;;3544370;39;111887;-80
2021/07/28 09:01:32;;;;;;;;;16.00;15.33;;;;;;;;3544053;39;113376;-80
2021/07/28 09:03:58;;;;;;;;;17.00;16.33;;;;;;;;3543746;39;114046;-77
2021/07/28 09:06:28;;;;;;;;;16.00;16.00;;;;;;;;3544101;39;112288;-80
2021/07/28 09:08:59;;;;;;;;;16.00;15.67;;;;;;;;3542119;39;113283;-79
2021/07/28 09:11:26;;;;;;;;;17.00;16.00;;;;;;;;3546210;39;114248;-79
2021/07/28 09:13:55;;;;;;;;;16.67;15.33;;;;;;;;3544176;39;113505;-78
2021/07/28 09:16:21;;;;;;;;;18.67;17.67;;;;;;;;3543645;39;113963;-77
2021/07/28 09:18:49;;;;;;;;;16.33;16.33;;;;;;;;3543409;39;113088;-77
2021/07/28 09:21:26;;;;;;;;;17.33;17.33;;;;;;;;3543831;39;113180;-77
2021/07/28 09:23:54;;;;;;;;;17.00;16.67;;;;;;;;3542154;39;114462;-80
2021/07/28 09:26:32;;;;;;;;;18.33;17.00;;;;;;;;3542228;39;112298;-78
2021/07/28 09:29:03;;;;;;;;;16.00;14.67;;;;;;;;3541958;39;113314;-79
2021/07/28 09:31:32;;;;;;;;;20.00;17.67;;;;;;;;3538862;39;114064;-78
2021/07/28 09:34:07;;;;;;;;;17.33;16.67;;;;;;;;3543425;39;111954;-78
2021/07/28 09:36:35;;;;;;;;;16.33;16.00;;;;;;;;3537414;39;113958;-77
2021/07/28 09:39:02;;;;;;;;;17.33;17.00;;;;;;;;3542990;39;114916;-76
2021/07/28 09:41:28;;;;;;;;;19.33;18.67;;;;;;;;3543680;39;113223;-79
2021/07/28 09:43:57;;;;;;;;;16.67;16.67;;;;;;;;3541862;39;114264;-81
2021/07/28 09:46:28;;;;;;;;;18.00;18.00;;;;;;;;3544015;39;111843;-82
2021/07/28 09:48:55;;;;;;;;;23.00;20.00;;;;;;;;3543999;39;113845;-79
2021/07/28 09:51:22;;;;;;;;;20.67;19.33;;;;;;;;3543132;39;114420;-79
2021/07/28 09:53:52;;;;;;;;;17.67;17.67;;;;;;;;3541650;39;112771;-80
2021/07/28 09:56:24;;;;;;;;;17.67;17.00;;;;;;;;3543868;39;113869;-82
2021/07/28 09:58:51;;;;;;;;;18.33;18.33;;;;;;;;3543602;39;111961;-80
2021/07/28 10:01:19;;;;;;;;;19.00;19.00;;;;;;;;3543974;39;113251;-80
2021/07/28 10:03:46;;;;;;;;;20.00;19.00;;;;;;;;3542963;39;114308;-79
2021/07/28 10:06:15;;;;;;;;;24.67;23.33;;;;;;;;3543755;39;112076;-79
2021/07/28 10:08:41;;;;;;;;;32.33;30.00;;;;;;;;3543661;39;114333;-78
2021/07/28 10:11:13;;;;;;;;;20.67;19.00;;;;;;;;3543222;39;114031;-83
2021/07/28 10:13:39;;;;;;;;;20.00;20.00;;;;;;;;3543650;39;112354;-77
2021/07/28 10:16:06;;;;;;;;;18.00;17.33;;;;;;;;3543035;39;113345;-79
2021/07/28 10:18:34;;;;;;;;;20.67;19.00;;;;;;;;3540689;39;112289;-79
2021/07/28 10:21:01;;;;;;;;;19.67;18.00;;;;;;;;3540460;39;113983;-79
2021/07/28 10:23:27;;;;;;;;;21.00;20.00;;;;;;;;3542781;39;113960;-79
2021/07/28 10:25:54;;;;;;;;;20.00;18.00;;;;;;;;3543245;39;112536;-81
2021/07/28 10:28:21;;;;;;;;;22.00;20.67;;;;;;;;3543328;39;113735;-80
2021/07/28 10:31:10;;;;;;;;;18.00;17.67;;;;;;;;3540398;39;113898;-79
2021/07/28 10:33:46;;;;;;;;;17.67;17.00;;;;;;;;3542538;39;112174;-79
2021/07/28 10:36:12;;;;;;;;;18.00;18.00;;;;;;;;3543058;39;113378;-81
2021/07/28 10:38:50;;;;;;;;;19.67;18.67;;;;;;;;3545517;39;115184;-77
2021/07/28 10:41:46;;;;;;;;;21.00;20.00;;;;;;;;3543198;39;113837;-76
2021/07/28 10:44:13;;;;;;;;;20.00;18.33;;;;;;;;3541112;39;114854;-77
2021/07/28 10:46:58;;;;;;;;;20.00;19.00;;;;;;;;3543766;39;111983;-76
2021/07/28 10:49:40;;;;;;;;;20.33;20.00;;;;;;;;3544549;39;113352;-81
2021/07/28 22:40:19;;;;;;;;;24.00;23.00;;;;;;;;3546147;39;1475628;-81
2021/07/28 22:42:45;;;;;;;;;20.67;18.00;;;;;;;;3576216;39;113851;-83
2021/07/28 22:45:12;;;;;;;;;22.25;21.25;;;;;;;;3576145;39;112379;-82
2021/07/28 22:47:38;;;;;;;;;24.25;20.50;;;;;;;;3576962;39;113396;-82
2021/07/28 22:55:35;;;;;;;;;18.75;18.50;;;;;;;;3575113;39;111899;-84
2021/07/28 22:58:02;;;;;;;;;21.00;20.00;;;;;;;;3571785;39;113161;-84
2021/07/28 23:00:47;;;;;;;;;24.33;21.33;;;;;;;;3578784;39;112133;-83
2021/07/28 23:08:44;;;;;;;;;21.00;17.67;;;;;;;;3575987;39;113374;-84
2021/07/28 23:11:12;;;;;;;;;22.00;22.00;;;;;;;;3576455;39;113975;-85
2021/07/28 23:13:38;;;;;;;;;18.33;18.00;;;;;;;;3576851;39;111960;-84
2021/07/28 23:16:06;;;;;;;;;21.33;18.00;;;;;;;;3576511;39;113036;-84
2021/07/28 23:18:33;;;;;;;;;21.00;19.00;;;;;;;;3576694;39;113892;-83
2021/07/28 23:21:03;;;;;;;;;23.00;22.00;;;;;;;;3576060;39;112192;-84
2021/07/28 23:23:29;;;;;;;;;19.33;17.67;;;;;;;;3579723;39;113558;-83
2021/07/28 23:25:56;;;;;;;;;20.67;19.33;;;;;;;;3575815;39;112115;-84
2021/07/28 23:28:24;;;;;;;;;24.67;21.67;;;;;;;;3573769;39;113396;-83
2021/07/28 23:30:50;;;;;;;;;20.00;18.33;;;;;;;;3577119;39;114546;-82
2021/07/28 23:33:17;;;;;;;;;24.67;21.33;;;;;;;;3576129;39;112917;-83
2021/07/28 23:35:43;;;;;;;;;22.00;20.67;;;;;;;;3577543;39;113210;-82
2021/07/28 23:38:10;;;;;;;;;22.00;19.67;;;;;;;;3575031;39;116464;-82
2021/07/28 23:40:37;;;;;;;;;22.33;22.33;;;;;;;;3577169;39;112079;-82
2021/07/28 23:43:03;;;;;;;;;24.00;22.33;;;;;;;;3576473;39;113263;-82
2021/07/28 23:45:31;;;;;;;;;19.33;19.33;;;;;;;;3579662;39;113819;-82
2021/07/28 23:47:58;;;;;;;;;21.67;20.67;;;;;;;;3576002;39;113439;-83
2021/07/28 23:50:24;;;;;;;;;21.00;21.00;;;;;;;;3571626;39;113982;-83
2021/07/28 23:52:53;;;;;;;;;22.67;21.00;;;;;;;;3567218;39;112024;-83
2021/07/28 23:55:20;;;;;;;;;19.67;19.00;;;;;;;;3570932;39;113663;-83
2021/07/28 23:57:46;;;;;;;;;22.33;20.33;;;;;;;;3569114;39;114248;-84
